Time;durP1;ratioP1;P1;durP2;ratioP2;P2;SDS_P1;SDS_P2;PMS_P1;PMS_P2;Temp;Humidity;BMP_temperature;BMP_pressure;BME280_temperature;BME280_humidity;BME280_pressure;Samples;Min_cycle;Max_cycle;Signal;HPM_P1;HPM_P2
2023/07/08 00:00:47;;;;;;;5.40;4.60;;;12.00;99.90;;;;;;5031484;28;20101;-80
2023/07/08 00:03:14;;;;;;;4.60;4.20;;;11.90;99.90;;;;;;5031512;28;20120;-77
2023/07/08 00:05:40;;;;;;;5.32;4.40;;;11.90;99.90;;;;;;5031353;28;20022;-81
2023/07/08 00:08:12;;;;;;;4.82;4.43;;;11.80;99.90;;;;;;5031516;28;20026;-80
2023/07/08 00:10:37;;;;;;;7.82;5.22;;;11.80;99.90;;;;;;5031465;28;20026;-80
2023/07/08 00:13:03;;;;;;;7.15;4.65;;;11.90;99.90;;;;;;5032540;28;20386;-80
2023/07/08 00:15:32;;;;;;;6.07;4.57;;;11.80;99.90;;;;;;5031370;28;20018;-78
2023/07/08 00:17:58;;;;;;;5.22;4.72;;;11.90;99.90;;;;;;5030824;28;20125;-77
2023/07/08 00:20:32;;;;;;;7.32;5.53;;;11.80;99.90;;;;;;5032247;28;20022;-77
2023/07/08 00:23:00;;;;;;;5.75;4.63;;;11.80;99.90;;;;;;5031308;28;20056;-80
2023/07/08 00:25:26;;;;;;;5.68;4.78;;;11.70;99.90;;;;;;5032452;28;20424;-78
2023/07/08 00:27:51;;;;;;;4.57;4.18;;;11.70;99.90;;;;;;5031107;28;20025;-78
2023/07/08 00:30:29;;;;;;;5.32;4.40;;;11.60;99.90;;;;;;5032358;28;20078;-77
2023/07/08 00:32:55;;;;;;;5.07;4.63;;;11.60;99.90;;;;;;5032361;28;20429;-77
2023/07/08 00:35:35;;;;;;;5.10;4.57;;;11.50;99.90;;;;;;5031218;28;20025;-81
2023/07/08 00:38:02;;;;;;;6.50;5.22;;;11.40;99.90;;;;;;5032266;28;20025;-81
2023/07/08 00:40:31;;;;;;;6.00;5.40;;;11.40;99.90;;;;;;5030767;28;20057;-77
2023/07/08 00:43:00;;;;;;;6.38;5.20;;;11.40;99.90;;;;;;5030832;28;20022;-77
2023/07/08 00:45:35;;;;;;;6.45;4.82;;;11.40;99.90;;;;;;5030763;28;20025;-80
2023/07/08 00:48:23;;;;;;;6.13;5.00;;;11.40;99.90;;;;;;5030856;28;20025;-81
2023/07/08 00:50:49;;;;;;;5.43;4.93;;;11.40;99.90;;;;;;5032084;28;20479;-81
2023/07/08 00:53:30;;;;;;;6.75;5.90;;;11.40;99.90;;;;;;5030640;28;20083;-77
2023/07/08 00:56:00;;;;;;;6.07;5.50;;;11.30;99.90;;;;;;5031947;28;20440;-81
2023/07/08 00:58:34;;;;;;;6.22;5.63;;;11.30;99.90;;;;;;5031960;28;20082;-77
2023/07/08 01:01:02;;;;;;;6.35;5.75;;;11.20;99.90;;;;;;5032012;28;20026;-77
2023/07/08 01:03:29;;;;;;;5.38;4.85;;;11.10;99.90;;;;;;5030609;28;20122;-81
2023/07/08 01:05:59;;;;;;;6.00;5.38;;;11.10;99.90;;;;;;5030551;28;20497;-77
2023/07/08 01:08:28;;;;;;;5.63;5.13;;;11.10;99.90;;;;;;5030512;28;20029;-81
2023/07/08 01:11:01;;;;;;;5.78;4.90;;;11.10;99.90;;;;;;5031693;28;20033;-77
2023/07/08 01:13:30;;;;;;;5.10;4.68;;;11.10;99.90;;;;;;5031706;28;20029;-81
2023/07/08 01:15:56;;;;;;;8.82;4.47;;;11.10;99.90;;;;;;5030350;28;20025;-80
2023/07/08 01:18:24;;;;;;;4.43;3.95;;;11.10;99.90;;;;;;5030360;28;20032;-77
2023/07/08 01:20:50;;;;;;;4.18;3.78;;;11.10;99.90;;;;;;5030267;28;20017;-77
2023/07/08 01:23:16;;;;;;;4.70;4.28;;;11.10;99.90;;;;;;5030369;28;20066;-77
2023/07/08 01:25:44;;;;;;;4.70;4.20;;;11.10;99.90;;;;;;5030218;28;20024;-77
2023/07/08 01:28:10;;;;;;;6.40;4.07;;;11.10;99.90;;;;;;5031520;28;20109;-77
2023/07/08 01:30:37;;;;;;;4.50;4.13;;;11.20;99.90;;;;;;5031296;28;20487;-76
2023/07/08 01:33:07;;;;;;;7.10;4.32;;;11.10;99.90;;;;;;5031357;28;20030;-77
2023/07/08 01:35:33;;;;;;;4.72;4.43;;;10.90;99.90;;;;;;5031377;28;20029;-81
2023/07/08 01:38:02;;;;;;;5.20;4.68;;;10.90;99.90;;;;;;5029986;28;20029;-81
2023/07/08 01:40:31;;;;;;;5.43;4.93;;;10.80;99.90;;;;;;5029817;28;20137;-77
2023/07/08 01:42:58;;;;;;;7.70;4.88;;;10.80;99.90;;;;;;5031257;28;20487;-77
2023/07/08 01:45:27;;;;;;;24.15;11.68;;;10.70;99.90;;;;;;5031301;28;20030;-77
2023/07/08 01:48:20;;;;;;;14.52;8.68;;;10.70;99.90;;;;;;5029956;28;20022;-76
2023/07/08 01:51:06;;;;;;;9.77;5.55;;;10.70;99.90;;;;;;5029630;28;20376;-77
2023/07/08 01:53:33;;;;;;;8.38;6.10;;;10.70;99.90;;;;;;5029760;28;20030;-80
2023/07/08 01:55:59;;;;;;;9.35;5.65;;;10.60;99.90;;;;;;5029658;28;20018;-76
2023/07/08 01:58:25;;;;;;;7.22;5.95;;;10.60;99.90;;;;;;5031066;28;20116;-79
2023/07/08 02:00:51;;;;;;;5.32;4.82;;;10.60;99.90;;;;;;5031065;28;20063;-80
2023/07/08 02:03:17;;;;;;;6.15;4.95;;;10.60;99.90;;;;;;5031005;28;20036;-76
2023/07/08 02:05:43;;;;;;;5.95;4.80;;;10.60;99.90;;;;;;5030153;28;20021;-80
2023/07/08 02:08:09;;;;;;;5.50;5.00;;;10.50;99.90;;;;;;5050854;28;20032;-77
2023/07/08 02:10:37;;;;;;;6.32;4.85;;;10.50;99.90;;;;;;5049479;28;20029;-76
2023/07/08 02:13:02;;;;;;;4.72;4.10;;;10.50;99.90;;;;;;5050504;28;20501;-76
2023/07/08 02:15:28;;;;;;;5.38;4.35;;;10.40;99.90;;;;;;5049371;28;20025;-81
2023/07/08 02:17:54;;;;;;;5.35;4.60;;;10.40;99.90;;;;;;5050573;28;20490;-81
2023/07/08 02:20:19;;;;;;;8.18;5.57;;;10.40;99.90;;;;;;5050625;28;20025;-76
2023/07/08 02:22:45;;;;;;;7.47;4.68;;;10.40;99.90;;;;;;5050539;28;20069;-80
2023/07/08 02:25:11;;;;;;;4.65;4.20;;;10.40;99.90;;;;;;5049286;28;20112;-80
2023/07/08 02:27:38;;;;;;;4.25;3.95;;;10.40;99.90;;;;;;5050684;28;20037;-79
2023/07/08 02:30:05;;;;;;;4.90;4.40;;;10.40;99.90;;;;;;5050459;28;20021;-76
2023/07/08 02:32:35;;;;;;;4.65;4.20;;;10.50;99.90;;;;;;5050378;28;20116;-76
2023/07/08 02:35:03;;;;;;;5.00;4.60;;;10.40;99.90;;;;;;5050457;28;20027;-79
2023/07/08 02:37:30;;;;;;;4.10;3.70;;;10.40;99.90;;;;;;5048652;28;20021;-76
2023/07/08 02:39:55;;;;;;;4.10;3.80;;;10.40;99.90;;;;;;5050265;28;20019;-80
2023/07/08 02:42:21;;;;;;;4.30;4.00;;;10.30;99.90;;;;;;5048417;28;20037;-81
2023/07/08 02:44:47;;;;;;;4.47;4.07;;;10.30;99.90;;;;;;5048986;28;20082;-80
2023/07/08 02:47:12;;;;;;;4.88;3.80;;;10.20;99.90;;;;;;5050147;28;20474;-76
2023/07/08 02:49:38;;;;;;;5.75;4.22;;;10.20;99.90;;;;;;5050337;28;20103;-76
2023/07/08 02:52:04;;;;;;;4.22;3.83;;;10.20;99.90;;;;;;5048701;28;20041;-76
2023/07/08 02:54:30;;;;;;;5.47;4.10;;;10.30;99.90;;;;;;5050129;28;20033;-77
2023/07/08 02:56:55;;;;;;;4.43;3.72;;;10.30;99.90;;;;;;5050139;28;20489;-76
2023/07/08 02:59:21;;;;;;;4.60;4.03;;;10.30;99.90;;;;;;5050105;28;20134;-81
2023/07/08 03:01:46;;;;;;;4.65;4.03;;;10.30;99.90;;;;;;5048646;28;20025;-76
2023/07/08 03:04:13;;;;;;;4.53;4.13;;;10.20;99.90;;;;;;5048754;28;20024;-81
2023/07/08 03:06:43;;;;;;;4.25;3.85;;;10.20;99.90;;;;;;5049933;28;20044;-81
2023/07/08 03:09:10;;;;;;;4.60;4.20;;;10.20;99.90;;;;;;5048743;28;20153;-81
2023/07/08 03:11:36;;;;;;;6.03;4.50;;;10.20;99.90;;;;;;5049818;28;20033;-77
2023/07/08 03:14:02;;;;;;;4.57;4.10;;;10.20;99.90;;;;;;5049853;28;20027;-79
2023/07/08 03:16:28;;;;;;;5.03;4.32;;;10.30;99.90;;;;;;5049800;28;20025;-79
2023/07/08 03:18:53;;;;;;;5.45;4.90;;;10.30;99.90;;;;;;5048479;28;20526;-76
2023/07/08 03:21:19;;;;;;;6.68;4.55;;;10.40;99.90;;;;;;5049852;28;20493;-81
2023/07/08 03:23:45;;;;;;;5.53;4.45;;;10.50;99.90;;;;;;5049747;28;20041;-81
2023/07/08 03:26:23;;;;;;;4.55;4.15;;;10.60;99.90;;;;;;5048512;28;20436;-76
2023/07/08 03:28:49;;;;;;;8.70;4.70;;;10.70;99.90;;;;;;5049796;28;20025;-81
2023/07/08 03:31:15;;;;;;;5.38;4.28;;;10.90;99.90;;;;;;5048302;28;20037;-81
2023/07/08 03:33:41;;;;;;;4.15;3.85;;;11.00;99.90;;;;;;5038795;28;20065;-81
2023/07/08 03:36:23;;;;;;;5.07;4.05;;;11.20;99.90;;;;;;5028412;28;20060;-77
2023/07/08 03:38:51;;;;;;;4.38;3.97;;;11.40;99.90;;;;;;5029856;28;20060;-82
2023/07/08 03:41:17;;;;;;;4.57;3.85;;;11.60;99.90;;;;;;5028238;28;20106;-81
2023/07/08 03:43:42;;;;;;;4.25;3.55;;;11.90;99.90;;;;;;5029564;28;20483;-76
2023/07/08 03:46:12;;;;;;;4.72;4.03;;;12.00;99.90;;;;;;5029499;28;20069;-82
2023/07/08 03:48:38;;;;;;;4.28;3.35;;;12.20;99.90;;;;;;5029639;28;20021;-77
2023/07/08 03:51:04;;;;;;;3.88;3.58;;;12.40;99.90;;;;;;5028275;28;20468;-77
2023/07/08 03:53:30;;;;;;;4.05;3.63;;;12.70;99.90;;;;;;5012157;28;20428;-82
2023/07/08 03:55:56;;;;;;;3.58;3.20;;;12.70;99.90;;;;;;5032896;28;20022;-82
2023/07/08 03:58:21;;;;;;;3.60;3.30;;;12.90;99.90;;;;;;5031570;28;20580;-77
2023/07/08 04:00:47;;;;;;;4.05;3.15;;;13.10;99.90;;;;;;5031579;28;20555;-82
2023/07/08 04:03:12;;;;;;;3.53;2.85;;;13.20;99.90;;;;;;5032827;28;20013;-82
2023/07/08 04:05:38;;;;;;;4.75;3.58;;;13.40;99.90;;;;;;5031382;28;20386;-76
2023/07/08 04:08:04;;;;;;;3.83;3.53;;;13.60;99.90;;;;;;5031509;28;20067;-77
2023/07/08 04:10:30;;;;;;;4.85;3.30;;;13.90;99.90;;;;;;5032770;28;20049;-82
2023/07/08 04:12:55;;;;;;;3.50;3.20;;;14.10;99.90;;;;;;5032446;28;20395;-77
2023/07/08 04:15:25;;;;;;;6.60;3.10;;;14.40;99.90;;;;;;5031531;28;20075;-78
2023/07/08 04:17:51;;;;;;;4.13;3.70;;;14.60;99.10;;;;;;5032611;28;20025;-77
2023/07/08 04:20:18;;;;;;;5.22;3.55;;;14.80;96.30;;;;;;5031335;28;20113;-77
2023/07/08 04:22:44;;;;;;;4.68;3.13;;;14.90;94.20;;;;;;5031362;28;20566;-77
2023/07/08 04:25:12;;;;;;;3.60;3.30;;;15.00;94.30;;;;;;5032322;28;20067;-82
2023/07/08 04:27:38;;;;;;;9.45;3.45;;;15.20;95.30;;;;;;5032424;28;20100;-77
2023/07/08 04:30:05;;;;;;;3.53;3.22;;;15.40;94.60;;;;;;5032377;28;20026;-82
2023/07/08 04:32:31;;;;;;;3.70;3.28;;;15.50;92.50;;;;;;5030953;28;20033;-82
2023/07/08 04:34:56;;;;;;;5.28;3.58;;;15.50;93.00;;;;;;5032273;28;20143;-77
2023/07/08 04:37:22;;;;;;;4.05;3.25;;;15.60;94.70;;;;;;5031002;28;20150;-83
2023/07/08 04:39:47;;;;;;;7.75;3.30;;;15.70;96.60;;;;;;5031028;28;20135;-82
2023/07/08 04:42:15;;;;;;;3.80;3.35;;;15.90;97.80;;;;;;5032240;28;20054;-78
2023/07/08 04:44:41;;;;;;;4.13;3.80;;;16.00;96.80;;;;;;5032293;28;20033;-78
2023/07/08 04:47:08;;;;;;;4.38;3.97;;;16.00;99.20;;;;;;5032133;28;20032;-82
2023/07/08 04:49:34;;;;;;;3.85;3.55;;;15.90;99.90;;;;;;5030933;28;20534;-77
2023/07/08 04:52:01;;;;;;;4.03;3.72;;;15.90;99.90;;;;;;5030834;28;20033;-77
2023/07/08 04:54:30;;;;;;;5.15;3.92;;;15.90;99.90;;;;;;5031988;28;20447;-82
2023/07/08 04:56:56;;;;;;;3.97;3.55;;;16.00;99.90;;;;;;5030772;28;20021;-82
2023/07/08 04:59:24;;;;;;;6.20;4.00;;;16.20;99.90;;;;;;5031923;28;20525;-82
2023/07/08 05:01:51;;;;;;;4.07;3.67;;;16.30;99.90;;;;;;5031980;28;20017;-81
2023/07/08 05:04:19;;;;;;;3.90;3.60;;;16.30;99.90;;;;;;5031651;28;20022;-81
2023/07/08 05:06:45;;;;;;;5.30;3.75;;;16.30;99.90;;;;;;5030551;28;20121;-81
2023/07/08 05:09:11;;;;;;;4.90;3.85;;;16.30;99.90;;;;;;5037844;28;20554;-77
2023/07/08 05:11:36;;;;;;;6.75;4.00;;;16.40;99.90;;;;;;5041285;28;20056;-76
2023/07/08 05:14:03;;;;;;;5.85;4.00;;;16.50;99.90;;;;;;5040624;28;20021;-83
2023/07/08 05:16:29;;;;;;;4.60;3.90;;;16.70;99.90;;;;;;5040079;28;20021;-83
2023/07/08 05:18:54;;;;;;;5.10;4.53;;;16.90;98.50;;;;;;5041509;28;20044;-82
2023/07/08 05:21:20;;;;;;;6.25;4.35;;;17.10;96.40;;;;;;5040275;28;20017;-78
2023/07/08 05:23:49;;;;;;;11.07;7.93;;;17.40;95.90;;;;;;5035304;28;20029;-77
2023/07/08 05:26:15;;;;;;;10.85;8.75;;;17.50;97.00;;;;;;5031457;28;20475;-78
2023/07/08 05:28:41;;;;;;;6.03;5.43;;;17.70;95.50;;;;;;5031545;28;20028;-77
2023/07/08 05:31:06;;;;;;;9.32;6.55;;;17.90;95.50;;;;;;5032835;28;20021;-78
2023/07/08 05:33:32;;;;;;;10.52;8.77;;;18.00;96.90;;;;;;5035214;28;20033;-78
2023/07/08 05:35:58;;;;;;;10.73;8.13;;;18.30;97.00;;;;;;5034413;28;20021;-81
2023/07/08 05:38:24;;;;;;;8.48;6.65;;;18.40;96.10;;;;;;5033949;28;20501;-78
2023/07/08 05:40:53;;;;;;;10.07;7.38;;;18.50;91.80;;;;;;5038045;28;20053;-78
2023/07/08 05:43:19;;;;;;;18.13;15.10;;;18.70;89.50;;;;;;5038306;28;20032;-79
2023/07/08 05:45:45;;;;;;;16.20;13.52;;;18.90;90.10;;;;;;5045847;28;20077;-82
2023/07/08 05:48:11;;;;;;;17.23;14.00;;;19.00;88.80;;;;;;5039246;28;20026;-78
2023/07/08 05:50:36;;;;;;;17.95;14.63;;;19.20;84.00;;;;;;5039858;28;20497;-81
2023/07/08 05:53:02;;;;;;;15.60;11.57;;;19.30;79.10;;;;;;5040707;28;20078;-80
2023/07/08 05:55:28;;;;;;;12.43;9.15;;;19.40;75.80;;;;;;5039736;28;20009;-78
2023/07/08 05:57:53;;;;;;;7.95;6.82;;;19.40;71.00;;;;;;5038679;28;20121;-81
2023/07/08 06:00:19;;;;;;;9.00;7.35;;;19.60;69.40;;;;;;5038578;28;20018;-78
2023/07/08 06:02:44;;;;;;;8.68;6.78;;;19.70;70.20;;;;;;5041413;28;20081;-78
2023/07/08 06:05:10;;;;;;;7.90;7.10;;;19.80;69.70;;;;;;5049637;28;20066;-82
2023/07/08 06:07:36;;;;;;;6.15;5.55;;;19.90;67.00;;;;;;5049404;28;20021;-78
2023/07/08 06:10:02;;;;;;;6.78;6.07;;;20.10;67.00;;;;;;5050551;28;20021;-78
2023/07/08 06:12:30;;;;;;;9.48;7.00;;;20.30;68.30;;;;;;5047557;28;20029;-78
2023/07/08 06:14:56;;;;;;;6.45;5.85;;;20.50;68.30;;;;;;5039237;28;20078;-81
2023/07/08 06:17:21;;;;;;;7.18;6.05;;;20.60;67.70;;;;;;5027260;28;20478;-80
2023/07/08 06:19:47;;;;;;;8.90;5.85;;;20.80;68.10;;;;;;5041709;28;20108;-82
2023/07/08 06:22:13;;;;;;;7.60;5.88;;;21.00;68.00;;;;;;5049303;28;20386;-79
2023/07/08 06:24:39;;;;;;;8.43;5.25;;;21.10;67.40;;;;;;5050595;28;20040;-79
2023/07/08 06:27:05;;;;;;;6.38;5.32;;;21.30;66.40;;;;;;5047226;28;20040;-78
2023/07/08 06:29:30;;;;;;;7.68;5.72;;;21.50;67.10;;;;;;5041078;28;20032;-79
2023/07/08 06:31:57;;;;;;;5.78;5.28;;;21.60;66.70;;;;;;5038479;28;20390;-79
2023/07/08 06:34:23;;;;;;;6.97;5.70;;;21.70;65.60;;;;;;5038650;28;20021;-79
2023/07/08 06:36:50;;;;;;;6.80;4.90;;;21.80;65.50;;;;;;5037228;28;20105;-81
2023/07/08 06:39:16;;;;;;;5.72;4.53;;;21.80;64.40;;;;;;5031193;28;20070;-79
2023/07/08 06:41:42;;;;;;;5.38;4.53;;;22.00;64.70;;;;;;5038049;28;20053;-79
2023/07/08 06:44:08;;;;;;;4.55;4.05;;;22.10;64.50;;;;;;5040861;28;20098;-79
2023/07/08 06:46:34;;;;;;;4.93;4.20;;;22.20;62.60;;;;;;5048951;28;20025;-79
2023/07/08 06:49:00;;;;;;;4.00;3.65;;;22.50;62.70;;;;;;5050241;28;20509;-79
2023/07/08 06:51:26;;;;;;;3.35;3.05;;;22.50;57.90;;;;;;5048871;28;20116;-79
2023/07/08 06:53:52;;;;;;;3.45;3.13;;;22.80;57.40;;;;;;5050158;28;20064;-80
2023/07/08 06:56:17;;;;;;;2.33;2.17;;;22.90;57.30;;;;;;5050010;28;20056;-81
2023/07/08 06:58:43;;;;;;;2.42;2.22;;;22.90;56.00;;;;;;5048827;28;20026;-80
2023/07/08 07:01:08;;;;;;;2.80;2.60;;;23.10;55.00;;;;;;5038564;28;20053;-80
2023/07/08 07:03:34;;;;;;;6.03;2.70;;;23.20;53.30;;;;;;5026871;28;20038;-80
2023/07/08 07:06:00;;;;;;;2.70;2.50;;;23.30;52.00;;;;;;5027306;28;20032;-80
2023/07/08 07:08:25;;;;;;;2.25;2.05;;;23.40;52.80;;;;;;5027368;28;20029;-80
2023/07/08 07:10:51;;;;;;;2.53;2.33;;;23.40;51.60;;;;;;5028509;28;20026;-80
2023/07/08 07:13:16;;;;;;;3.40;2.55;;;23.50;50.60;;;;;;5027431;28;20492;-80
2023/07/08 07:15:42;;;;;;;3.33;2.30;;;23.70;51.50;;;;;;5028016;28;20022;-80
2023/07/08 07:18:08;;;;;;;5.10;2.35;;;23.80;48.80;;;;;;5029938;28;20408;-80
2023/07/08 07:20:35;;;;;;;2.15;2.00;;;24.00;49.60;;;;;;5029909;28;20356;-80
2023/07/08 07:23:01;;;;;;;3.25;1.80;;;24.10;48.20;;;;;;5029847;28;20432;-80
2023/07/08 07:25:27;;;;;;;2.10;1.90;;;24.10;47.30;;;;;;5029871;28;20029;-80
2023/07/08 07:27:52;;;;;;;3.38;2.00;;;24.20;47.70;;;;;;5029425;28;20438;-81
2023/07/08 07:30:18;;;;;;;3.38;2.45;;;24.20;46.00;;;;;;5032147;28;20090;-80
2023/07/08 07:32:44;;;;;;;2.08;1.90;;;24.30;46.50;;;;;;5033270;28;20429;-81
2023/07/08 07:35:12;;;;;;;4.35;2.53;;;24.30;45.70;;;;;;5031975;28;20024;-80
2023/07/08 07:37:39;;;;;;;2.45;2.25;;;24.30;45.60;;;;;;5032011;28;20420;-80
2023/07/08 07:40:06;;;;;;;3.58;2.60;;;24.40;47.10;;;;;;5033173;28;20033;-81
2023/07/08 07:42:32;;;;;;;5.57;2.60;;;24.40;47.10;;;;;;5032867;28;20062;-81
2023/07/08 07:44:57;;;;;;;3.72;2.35;;;24.50;46.40;;;;;;5033288;28;20025;-81
2023/07/08 07:47:23;;;;;;;4.78;2.45;;;24.60;46.30;;;;;;5031849;28;20497;-80
2023/07/08 07:49:49;;;;;;;2.08;1.95;;;24.70;46.70;;;;;;5033214;28;20395;-80
2023/07/08 07:52:18;;;;;;;3.38;2.05;;;24.80;46.20;;;;;;5031675;28;20033;-80
2023/07/08 07:54:43;;;;;;;1.88;1.77;;;24.70;43.90;;;;;;5032916;28;20109;-80
2023/07/08 07:57:09;;;;;;;2.90;2.10;;;24.80;43.70;;;;;;5031670;28;20108;-80
2023/07/08 07:59:34;;;;;;;2.90;2.00;;;24.80;43.70;;;;;;5031632;28;20459;-80
2023/07/08 08:02:00;;;;;;;2.45;1.90;;;24.90;45.10;;;;;;5032771;28;20029;-80
2023/07/08 08:04:26;;;;;;;3.00;2.30;;;24.90;44.30;;;;;;5032888;28;20030;-80
2023/07/08 08:06:51;;;;;;;2.50;2.30;;;24.80;43.10;;;;;;5031415;28;20494;-80
2023/07/08 08:09:17;;;;;;;7.85;2.47;;;24.80;43.80;;;;;;5032692;28;20033;-80
2023/07/08 08:11:42;;;;;;;3.10;2.00;;;25.00;43.30;;;;;;5031403;28;20047;-80
2023/07/08 08:14:08;;;;;;;3.40;1.95;;;25.30;42.80;;;;;;5031626;28;20057;-80
2023/07/08 08:16:34;;;;;;;2.33;1.90;;;25.50;41.70;;;;;;5032718;28;20101;-80
2023/07/08 08:18:59;;;;;;;2.55;2.35;;;25.60;41.50;;;;;;5032549;28;20436;-81
2023/07/08 08:21:25;;;;;;;3.42;2.10;;;25.70;42.10;;;;;;5031138;28;20474;-81
2023/07/08 08:23:50;;;;;;;2.28;2.08;;;25.90;41.90;;;;;;5031276;28;20056;-81
2023/07/08 08:26:16;;;;;;;2.75;2.00;;;26.00;42.20;;;;;;5032604;28;20024;-81
2023/07/08 08:28:42;;;;;;;2.67;1.70;;;26.00;41.50;;;;;;5031299;28;20021;-78
2023/07/08 08:31:07;;;;;;;2.58;2.38;;;26.00;40.60;;;;;;5031252;28;20049;-83
2023/07/08 08:33:33;;;;;;;3.45;2.00;;;26.10;41.00;;;;;;5032262;28;20503;-80
2023/07/08 08:35:58;;;;;;;4.10;2.58;;;25.90;40.50;;;;;;5032249;28;20021;-80
2023/07/08 08:38:24;;;;;;;2.22;2.00;;;25.80;40.10;;;;;;5032277;28;20026;-80
2023/07/08 08:40:49;;;;;;;2.65;2.35;;;25.80;39.50;;;;;;5031159;28;20178;-80
2023/07/08 08:43:23;;;;;;;3.15;2.05;;;25.80;39.70;;;;;;5030767;28;20029;-80
2023/07/08 08:45:53;;;;;;;1.90;1.80;;;25.90;39.00;;;;;;5031972;28;20066;-81
2023/07/08 08:48:21;;;;;;;2.20;2.00;;;26.00;39.00;;;;;;5032182;28;20018;-80
2023/07/08 08:50:54;;;;;;;2.40;2.20;;;25.90;38.40;;;;;;5032016;28;20025;-80
2023/07/08 08:53:22;;;;;;;2.28;1.85;;;26.00;38.60;;;;;;5031169;28;20386;-80
2023/07/08 08:55:59;;;;;;;2.78;1.48;;;26.00;38.90;;;;;;5032068;28;20070;-80
2023/07/08 08:58:34;;;;;;;2.17;2.03;;;25.80;38.30;;;;;;5032244;28;20035;-81
2023/07/08 09:01:07;;;;;;;1.83;1.67;;;25.90;37.70;;;;;;5031977;28;20074;-80
2023/07/08 09:04:08;;;;;;;3.00;2.25;;;25.90;37.50;;;;;;5030707;28;20074;-80
2023/07/08 09:06:35;;;;;;;1.70;1.60;;;25.90;36.40;;;;;;5031725;28;20086;-80
2023/07/08 09:09:21;;;;;;;1.92;1.40;;;26.20;36.70;;;;;;5031764;28;20100;-80
2023/07/08 09:11:59;;;;;;;2.95;1.45;;;26.30;37.80;;;;;;5031566;28;20022;-80
2023/07/08 09:14:28;;;;;;;1.60;1.50;;;26.30;37.20;;;;;;5031802;28;20040;-81
2023/07/08 09:17:22;;;;;;;4.00;3.60;;;26.40;37.60;;;;;;5030592;28;20022;-80
2023/07/08 09:20:16;;;;;;;2.42;1.90;;;26.40;37.80;;;;;;5031221;28;20036;-81
2023/07/08 09:23:02;;;;;;;3.33;1.60;;;26.40;37.00;;;;;;5029963;28;20116;-80
2023/07/08 09:25:39;;;;;;;2.28;1.80;;;26.40;36.10;;;;;;5031233;28;20100;-81
2023/07/08 09:28:04;;;;;;;2.40;2.20;;;26.30;36.30;;;;;;5030934;28;20018;-79
2023/07/08 09:30:30;;;;;;;2.92;1.80;;;26.40;37.90;;;;;;5030466;28;20029;-81
2023/07/08 09:32:57;;;;;;;3.17;1.70;;;26.20;37.20;;;;;;5029985;28;20041;-80
2023/07/08 09:35:37;;;;;;;2.13;1.88;;;26.40;37.40;;;;;;5032808;28;20056;-79
2023/07/08 09:38:13;;;;;;;1.70;1.60;;;26.50;39.30;;;;;;5037741;28;20073;-80
2023/07/08 09:40:39;;;;;;;1.70;1.60;;;26.40;36.80;;;;;;5038352;28;20546;-80
2023/07/08 09:43:13;;;;;;;3.95;2.28;;;26.20;35.90;;;;;;5039050;28;20017;-80
2023/07/08 09:45:47;;;;;;;2.25;1.92;;;26.30;35.00;;;;;;5039088;28;20029;-80
2023/07/08 09:48:23;;;;;;;2.22;1.77;;;26.50;35.20;;;;;;5039734;28;20393;-81
2023/07/08 09:50:52;;;;;;;2.30;1.33;;;26.50;35.30;;;;;;5037374;28;20026;-80
2023/07/08 09:53:18;;;;;;;1.92;1.55;;;26.40;35.90;;;;;;5039023;28;20419;-79
2023/07/08 09:55:45;;;;;;;1.90;1.80;;;26.40;35.80;;;;;;5033528;28;20026;-80
2023/07/08 09:58:27;;;;;;;2.05;1.63;;;26.40;35.00;;;;;;5044579;28;20056;-80
2023/07/08 10:00:58;;;;;;;;;;;26.40;35.30;;;;;;5049572;28;20096;-80
2023/07/08 10:03:28;;;;;;;1.95;1.85;;;26.60;35.00;;;;;;5093615;27;19952;-80
2023/07/08 10:05:57;;;;;;;2.20;2.00;;;26.70;36.00;;;;;;5133417;27;20164;-80
2023/07/08 10:08:39;;;;;;;4.97;3.42;;;26.90;36.20;;;;;;5134850;27;20492;-80
2023/07/08 10:11:18;;;;;;;2.97;2.00;;;27.00;37.40;;;;;;5080392;27;20486;-80
2023/07/08 10:13:48;;;;;;;2.38;1.88;;;26.90;36.10;;;;;;5030515;28;20036;-80
2023/07/08 10:16:22;;;;;;;3.58;1.80;;;26.80;37.50;;;;;;5036020;28;20112;-80
2023/07/08 10:18:48;;;;;;;3.92;1.95;;;26.90;38.20;;;;;;5050431;28;20021;-80
2023/07/08 10:21:33;;;;;;;2.10;1.90;;;26.90;37.60;;;;;;5050369;28;20029;-81
2023/07/08 10:24:13;;;;;;;1.90;1.58;;;26.90;36.40;;;;;;5050281;28;20025;-80
2023/07/08 10:26:39;;;;;;;2.72;1.73;;;26.80;35.80;;;;;;5030554;28;20025;-79
2023/07/08 10:29:17;;;;;;;4.07;2.17;;;26.80;36.20;;;;;;5029124;28;20036;-80
2023/07/08 10:31:56;;;;;;;4.82;2.53;;;26.70;36.50;;;;;;5028951;28;20029;-80
2023/07/08 10:34:42;;;;;;;2.75;1.95;;;26.70;36.60;;;;;;5030366;28;20525;-79
2023/07/08 10:37:25;;;;;;;3.20;2.35;;;26.70;37.60;;;;;;5044106;28;20021;-80
2023/07/08 10:40:12;;;;;;;5.32;2.50;;;26.90;39.10;;;;;;5050120;28;20058;-80
2023/07/08 10:43:22;;;;;;;2.38;2.17;;;26.90;37.40;;;;;;5049799;28;20045;-80
2023/07/08 10:45:59;;;;;;;3.38;2.15;;;26.90;37.50;;;;;;5048685;28;20025;-80
2023/07/08 10:48:46;;;;;;;2.40;2.05;;;26.90;37.20;;;;;;5048834;28;20120;-80
2023/07/08 10:51:31;;;;;;;2.05;1.90;;;26.70;36.20;;;;;;5048723;28;20025;-80
2023/07/08 10:54:06;;;;;;;2.83;2.33;;;26.90;35.40;;;;;;5049924;28;20112;-80
2023/07/08 10:57:01;;;;;;;2.50;1.95;;;27.00;36.10;;;;;;5049908;28;20482;-79
2023/07/08 10:59:45;;;;;;;2.00;1.83;;;27.30;35.80;;;;;;5044648;28;20044;-80
2023/07/08 11:02:28;;;;;;;2.17;1.92;;;27.30;34.10;;;;;;5034961;27;20490;-80
2023/07/08 11:05:17;;;;;;;2.28;1.88;;;27.40;34.40;;;;;;5052754;28;20021;-80
2023/07/08 11:08:08;;;;;;;2.25;1.80;;;27.50;34.50;;;;;;5052369;28;20032;-80
2023/07/08 11:10:53;;;;;;;2.88;1.98;;;27.70;35.40;;;;;;5052219;28;20108;-80
2023/07/08 11:13:21;;;;;;;2.40;2.20;;;27.90;35.70;;;;;;5050730;27;20037;-78
2023/07/08 11:15:58;;;;;;;3.88;2.72;;;28.20;36.40;;;;;;5039445;27;20090;-77
2023/07/08 11:18:47;;;;;;;4.88;2.20;;;28.20;36.50;;;;;;5050469;27;20041;-78
2023/07/08 11:21:20;;;;;;;3.35;2.47;;;28.20;36.80;;;;;;5044474;27;20037;-78
2023/07/08 11:24:07;;;;;;;2.10;2.00;;;28.10;36.80;;;;;;5052383;27;20033;-78
2023/07/08 11:26:40;;;;;;;4.00;2.40;;;28.10;36.90;;;;;;5042347;27;20029;-79
2023/07/08 11:29:20;;;;;;;2.50;2.30;;;28.20;37.30;;;;;;5052567;27;20028;-78
2023/07/08 11:31:48;;;;;;;2.53;2.33;;;28.10;36.60;;;;;;5051746;28;20025;-77
2023/07/08 11:34:16;;;;;;;3.03;2.40;;;28.00;37.20;;;;;;5051868;28;20093;-77
2023/07/08 11:36:43;;;;;;;3.15;2.55;;;28.20;37.20;;;;;;5052383;28;20025;-77
2023/07/08 11:39:40;;;;;;;3.42;2.22;;;27.90;35.70;;;;;;5033156;28;20025;-77
2023/07/08 11:42:21;;;;;;;4.63;2.97;;;27.90;35.60;;;;;;5036946;28;20042;-78
2023/07/08 11:44:58;;;;;;;4.50;2.80;;;27.90;36.10;;;;;;5033221;28;20029;-77
2023/07/08 11:47:38;;;;;;;3.40;2.17;;;27.90;37.50;;;;;;5031493;28;20025;-77
2023/07/08 11:50:07;;;;;;;2.85;2.33;;;28.00;37.50;;;;;;5032997;28;20070;-77
2023/07/08 11:52:35;;;;;;;3.78;2.45;;;28.00;36.70;;;;;;5048449;28;20037;-76
2023/07/08 11:55:14;;;;;;;4.20;2.60;;;28.00;36.00;;;;;;5052788;28;20039;-78
2023/07/08 11:57:42;;;;;;;3.53;2.83;;;28.10;37.80;;;;;;5042578;28;20029;-78
2023/07/08 12:00:22;;;;;;;3.38;2.72;;;28.40;37.60;;;;;;5035716;28;20113;-78
2023/07/08 12:03:03;;;;;;;2.60;2.30;;;28.50;37.80;;;;;;5040714;28;20109;-78
2023/07/08 12:05:34;;;;;;;3.88;2.60;;;28.60;36.00;;;;;;5051356;28;20112;-78
2023/07/08 12:08:01;;;;;;;7.85;3.25;;;28.40;36.30;;;;;;5050342;28;20028;-78
2023/07/08 12:10:39;;;;;;;4.35;2.70;;;28.30;35.00;;;;;;5113828;27;20025;-79
2023/07/08 12:13:14;;;;;;;3.03;2.58;;;28.50;36.60;;;;;;5032361;28;20042;-78
2023/07/08 12:15:40;;;;;;;3.85;2.40;;;28.60;37.10;;;;;;5031255;28;20413;-78
2023/07/08 12:18:16;;;;;;;3.38;2.28;;;28.70;37.90;;;;;;5031054;28;20036;-78
2023/07/08 12:20:48;;;;;;;5.20;2.50;;;28.50;36.40;;;;;;5028927;28;20021;-78
2023/07/08 12:23:20;;;;;;;2.60;2.33;;;28.50;35.90;;;;;;5031005;28;20104;-78
2023/07/08 12:25:46;;;;;;;3.10;2.38;;;28.50;36.50;;;;;;5030324;28;20026;-78
2023/07/08 12:28:12;;;;;;;3.08;2.47;;;28.60;36.20;;;;;;5028758;28;20071;-78
2023/07/08 12:30:39;;;;;;;3.88;2.20;;;28.70;36.30;;;;;;5037004;27;20050;-79
2023/07/08 12:33:12;;;;;;;3.10;2.63;;;28.80;36.10;;;;;;5034580;28;20056;-78
2023/07/08 12:35:37;;;;;;;3.80;2.15;;;28.80;36.00;;;;;;5035453;28;20038;-79
2023/07/08 12:38:15;;;;;;;2.30;2.10;;;28.70;34.90;;;;;;5033872;28;20029;-78
2023/07/08 12:40:41;;;;;;;2.75;2.40;;;28.80;34.70;;;;;;5029321;27;20029;-78
2023/07/08 12:43:10;;;;;;;2.63;2.42;;;28.60;34.40;;;;;;5040302;28;20036;-78
2023/07/08 12:45:36;;;;;;;3.10;1.98;;;28.50;35.20;;;;;;5049966;28;20608;-78
2023/07/08 12:48:02;;;;;;;2.45;2.25;;;28.50;35.70;;;;;;5051201;28;20092;-78
2023/07/08 12:50:28;;;;;;;6.03;2.10;;;28.50;34.60;;;;;;5049136;28;20204;-78
2023/07/08 12:52:54;;;;;;;3.22;2.15;;;28.50;34.50;;;;;;5050047;28;20033;-79
2023/07/08 12:55:20;;;;;;;2.53;2.33;;;28.30;34.30;;;;;;5049732;28;20024;-78
2023/07/08 12:57:48;;;;;;;2.72;1.88;;;28.50;35.40;;;;;;5051032;28;20061;-78